sensor_id;sensor_type;location;lat;lon;timestamp;P1;durP1;ratioP1;P2;durP2;ratioP2
49834;SDS011;35729;52.090;13.162;2023-04-25T00:00:05;5.15;;;2.40;;
49834;SDS011;35729;52.090;13.162;2023-04-25T00:02:35;2.80;;;2.03;;
49834;SDS011;35729;52.090;13.162;2023-04-25T00:05:04;5.80;;;2.45;;
49834;SDS011;35729;52.090;13.162;2023-04-25T00:07:33;5.00;;;2.63;;
49834;SDS011;35729;52.090;13.162;2023-04-25T00:10:05;3.03;;;2.25;;
49834;SDS011;35729;52.090;13.162;2023-04-25T00:12:36;5.53;;;2.40;;
49834;SDS011;35729;52.090;13.162;2023-04-25T00:15:05;5.90;;;2.20;;
49834;SDS011;35729;52.090;13.162;2023-04-25T00:17:34;4.30;;;2.28;;
49834;SDS011;35729;52.090;13.162;2023-04-25T00:20:03;2.53;;;2.22;;
49834;SDS011;35729;52.090;13.162;2023-04-25T00:22:34;5.55;;;2.53;;
49834;SDS011;35729;52.090;13.162;2023-04-25T00:25:05;3.05;;;2.38;;
49834;SDS011;35729;52.090;13.162;2023-04-25T00:27:35;3.70;;;2.80;;
49834;SDS011;35729;52.090;13.162;2023-04-25T00:30:04;4.13;;;2.47;;
49834;SDS011;35729;52.090;13.162;2023-04-25T00:32:34;3.95;;;2.97;;
49834;SDS011;35729;52.090;13.162;2023-04-25T00:35:03;4.18;;;2.67;;
49834;SDS011;35729;52.090;13.162;2023-04-25T00:37:32;3.80;;;3.08;;
49834;SDS011;35729;52.090;13.162;2023-04-25T00:40:00;8.10;;;3.35;;
49834;SDS011;35729;52.090;13.162;2023-04-25T00:42:33;5.10;;;3.13;;
49834;SDS011;35729;52.090;13.162;2023-04-25T00:45:04;6.43;;;3.47;;
49834;SDS011;35729;52.090;13.162;2023-04-25T00:47:35;6.40;;;3.63;;
49834;SDS011;35729;52.090;13.162;2023-04-25T00:50:04;4.97;;;3.47;;
49834;SDS011;35729;52.090;13.162;2023-04-25T00:52:34;5.30;;;3.35;;
49834;SDS011;35729;52.090;13.162;2023-04-25T00:55:02;6.72;;;4.03;;
49834;SDS011;35729;52.090;13.162;2023-04-25T00:57:34;4.25;;;3.38;;
49834;SDS011;35729;52.090;13.162;2023-04-25T01:00:03;5.80;;;3.75;;
49834;SDS011;35729;52.090;13.162;2023-04-25T01:02:34;8.80;;;3.63;;
49834;SDS011;35729;52.090;13.162;2023-04-25T01:05:03;5.43;;;3.90;;
49834;SDS011;35729;52.090;13.162;2023-04-25T01:07:32;8.35;;;4.53;;
49834;SDS011;35729;52.090;13.162;2023-04-25T01:10:02;9.20;;;4.22;;
49834;SDS011;35729;52.090;13.162;2023-04-25T01:12:33;6.35;;;4.05;;
49834;SDS011;35729;52.090;13.162;2023-04-25T01:15:02;6.22;;;4.28;;
49834;SDS011;35729;52.090;13.162;2023-04-25T01:17:31;4.88;;;4.28;;
49834;SDS011;35729;52.090;13.162;2023-04-25T01:20:02;7.57;;;4.68;;
49834;SDS011;35729;52.090;13.162;2023-04-25T01:22:35;6.57;;;4.47;;
49834;SDS011;35729;52.090;13.162;2023-04-25T01:25:10;5.95;;;4.78;;
49834;SDS011;35729;52.090;13.162;2023-04-25T01:27:39;11.02;;;5.78;;
49834;SDS011;35729;52.090;13.162;2023-04-25T01:30:08;7.60;;;5.07;;
49834;SDS011;35729;52.090;13.162;2023-04-25T01:32:37;8.93;;;5.95;;
49834;SDS011;35729;52.090;13.162;2023-04-25T01:35:06;7.63;;;5.65;;
49834;SDS011;35729;52.090;13.162;2023-04-25T01:37:39;7.47;;;5.53;;
49834;SDS011;35729;52.090;13.162;2023-04-25T01:40:15;8.00;;;5.68;;
49834;SDS011;35729;52.090;13.162;2023-04-25T01:42:44;9.13;;;5.68;;
49834;SDS011;35729;52.090;13.162;2023-04-25T01:45:12;6.50;;;5.07;;
49834;SDS011;35729;52.090;13.162;2023-04-25T01:47:41;5.90;;;4.50;;
49834;SDS011;35729;52.090;13.162;2023-04-25T01:50:14;9.25;;;5.55;;
49834;SDS011;35729;52.090;13.162;2023-04-25T01:52:45;9.05;;;5.13;;
49834;SDS011;35729;52.090;13.162;2023-04-25T01:55:14;8.93;;;5.45;;
49834;SDS011;35729;52.090;13.162;2023-04-25T01:57:42;11.07;;;4.82;;
49834;SDS011;35729;52.090;13.162;2023-04-25T02:00:11;7.78;;;4.55;;
49834;SDS011;35729;52.090;13.162;2023-04-25T02:02:40;7.35;;;4.47;;
49834;SDS011;35729;52.090;13.162;2023-04-25T02:05:09;9.55;;;4.65;;
49834;SDS011;35729;52.090;13.162;2023-04-25T02:07:37;5.82;;;4.43;;
49834;SDS011;35729;52.090;13.162;2023-04-25T02:10:09;9.20;;;4.65;;
49834;SDS011;35729;52.090;13.162;2023-04-25T02:12:37;6.72;;;4.60;;
49834;SDS011;35729;52.090;13.162;2023-04-25T02:15:06;7.35;;;4.60;;
49834;SDS011;35729;52.090;13.162;2023-04-25T02:17:35;6.00;;;4.72;;
49834;SDS011;35729;52.090;13.162;2023-04-25T02:20:04;5.90;;;4.22;;
49834;SDS011;35729;52.090;13.162;2023-04-25T02:22:33;7.03;;;4.47;;
49834;SDS011;35729;52.090;13.162;2023-04-25T02:25:02;7.63;;;4.93;;
49834;SDS011;35729;52.090;13.162;2023-04-25T02:27:34;8.85;;;5.10;;
49834;SDS011;35729;52.090;13.162;2023-04-25T02:30:03;7.53;;;4.68;;
49834;SDS011;35729;52.090;13.162;2023-04-25T02:32:32;8.13;;;5.05;;
49834;SDS011;35729;52.090;13.162;2023-04-25T02:35:01;8.68;;;4.93;;
49834;SDS011;35729;52.090;13.162;2023-04-25T02:37:30;9.73;;;4.95;;
49834;SDS011;35729;52.090;13.162;2023-04-25T02:39:59;7.30;;;4.50;;
49834;SDS011;35729;52.090;13.162;2023-04-25T02:42:28;6.93;;;4.97;;
49834;SDS011;35729;52.090;13.162;2023-04-25T02:44:59;5.38;;;4.80;;
49834;SDS011;35729;52.090;13.162;2023-04-25T02:47:27;7.90;;;4.93;;
49834;SDS011;35729;52.090;13.162;2023-04-25T02:49:56;7.25;;;5.25;;
49834;SDS011;35729;52.090;13.162;2023-04-25T02:52:24;9.20;;;5.53;;
49834;SDS011;35729;52.090;13.162;2023-04-25T02:54:53;6.15;;;4.50;;
49834;SDS011;35729;52.090;13.162;2023-04-25T02:57:21;8.95;;;4.97;;
49834;SDS011;35729;52.090;13.162;2023-04-25T02:59:50;7.45;;;5.18;;
49834;SDS011;35729;52.090;13.162;2023-04-25T03:02:21;6.63;;;5.35;;
49834;SDS011;35729;52.090;13.162;2023-04-25T03:04:49;7.75;;;4.88;;
49834;SDS011;35729;52.090;13.162;2023-04-25T03:07:19;8.82;;;5.20;;
49834;SDS011;35729;52.090;13.162;2023-04-25T03:09:47;13.25;;;6.47;;
49834;SDS011;35729;52.090;13.162;2023-04-25T03:12:15;14.48;;;8.95;;
49834;SDS011;35729;52.090;13.162;2023-04-25T03:14:44;12.35;;;6.97;;
49834;SDS011;35729;52.090;13.162;2023-04-25T03:17:12;9.45;;;5.40;;
49834;SDS011;35729;52.090;13.162;2023-04-25T03:19:43;7.32;;;4.82;;
49834;SDS011;35729;52.090;13.162;2023-04-25T03:22:12;12.05;;;5.70;;
49834;SDS011;35729;52.090;13.162;2023-04-25T03:24:40;7.63;;;5.25;;
49834;SDS011;35729;52.090;13.162;2023-04-25T03:27:08;8.50;;;5.10;;
49834;SDS011;35729;52.090;13.162;2023-04-25T03:29:37;10.60;;;5.57;;
49834;SDS011;35729;52.090;13.162;2023-04-25T03:32:05;9.18;;;5.60;;
49834;SDS011;35729;52.090;13.162;2023-04-25T03:34:34;12.98;;;5.45;;
49834;SDS011;35729;52.090;13.162;2023-04-25T03:37:05;10.00;;;5.53;;
49834;SDS011;35729;52.090;13.162;2023-04-25T03:39:33;8.65;;;5.32;;
49834;SDS011;35729;52.090;13.162;2023-04-25T03:42:02;7.55;;;5.22;;
49834;SDS011;35729;52.090;13.162;2023-04-25T03:44:31;7.90;;;5.20;;
49834;SDS011;35729;52.090;13.162;2023-04-25T03:46:59;8.20;;;5.45;;
49834;SDS011;35729;52.090;13.162;2023-04-25T03:49:28;8.95;;;4.65;;
49834;SDS011;35729;52.090;13.162;2023-04-25T03:52:05;6.47;;;4.85;;
49834;SDS011;35729;52.090;13.162;2023-04-25T03:54:34;8.40;;;5.32;;
49834;SDS011;35729;52.090;13.162;2023-04-25T03:57:02;10.18;;;5.38;;
49834;SDS011;35729;52.090;13.162;2023-04-25T03:59:31;5.95;;;4.68;;
49834;SDS011;35729;52.090;13.162;2023-04-25T04:01:59;6.57;;;4.50;;
49834;SDS011;35729;52.090;13.162;2023-04-25T04:04:28;8.18;;;4.72;;
49834;SDS011;35729;52.090;13.162;2023-04-25T04:06:56;7.93;;;4.68;;
49834;SDS011;35729;52.090;13.162;2023-04-25T04:09:27;7.68;;;4.57;;
49834;SDS011;35729;52.090;13.162;2023-04-25T04:11:55;11.35;;;4.70;;
49834;SDS011;35729;52.090;13.162;2023-04-25T04:14:24;11.13;;;4.85;;
49834;SDS011;35729;52.090;13.162;2023-04-25T04:16:52;9.50;;;4.70;;
49834;SDS011;35729;52.090;13.162;2023-04-25T04:19:21;7.25;;;4.53;;
49834;SDS011;35729;52.090;13.162;2023-04-25T04:21:49;9.32;;;4.68;;
49834;SDS011;35729;52.090;13.162;2023-04-25T04:24:17;7.65;;;4.47;;
49834;SDS011;35729;52.090;13.162;2023-04-25T04:26:49;9.48;;;4.90;;
49834;SDS011;35729;52.090;13.162;2023-04-25T04:29:18;9.18;;;5.03;;
49834;SDS011;35729;52.090;13.162;2023-04-25T04:31:48;9.65;;;5.63;;
49834;SDS011;35729;52.090;13.162;2023-04-25T04:34:17;9.95;;;4.95;;
49834;SDS011;35729;52.090;13.162;2023-04-25T04:36:46;9.43;;;6.05;;
49834;SDS011;35729;52.090;13.162;2023-04-25T04:39:14;8.80;;;5.38;;
49834;SDS011;35729;52.090;13.162;2023-04-25T04:41:43;8.57;;;5.10;;
49834;SDS011;35729;52.090;13.162;2023-04-25T04:44:14;7.72;;;4.93;;
49834;SDS011;35729;52.090;13.162;2023-04-25T04:46:42;10.70;;;5.03;;
49834;SDS011;35729;52.090;13.162;2023-04-25T04:49:11;9.02;;;5.75;;
49834;SDS011;35729;52.090;13.162;2023-04-25T04:51:40;7.82;;;5.15;;
49834;SDS011;35729;52.090;13.162;2023-04-25T04:54:09;7.40;;;4.85;;
49834;SDS011;35729;52.090;13.162;2023-04-25T04:56:38;8.73;;;4.65;;
49834;SDS011;35729;52.090;13.162;2023-04-25T04:59:06;8.55;;;4.90;;
49834;SDS011;35729;52.090;13.162;2023-04-25T05:01:38;10.07;;;5.35;;
49834;SDS011;35729;52.090;13.162;2023-04-25T05:04:06;8.40;;;4.68;;
49834;SDS011;35729;52.090;13.162;2023-04-25T05:06:34;8.73;;;5.07;;
49834;SDS011;35729;52.090;13.162;2023-04-25T05:09:03;11.02;;;4.55;;
49834;SDS011;35729;52.090;13.162;2023-04-25T05:11:31;9.38;;;4.68;;
49834;SDS011;35729;52.090;13.162;2023-04-25T05:14:00;7.82;;;4.70;;
49834;SDS011;35729;52.090;13.162;2023-04-25T05:16:28;7.18;;;4.47;;
49834;SDS011;35729;52.090;13.162;2023-04-25T05:18:59;11.20;;;5.05;;
49834;SDS011;35729;52.090;13.162;2023-04-25T05:21:28;8.95;;;5.38;;
49834;SDS011;35729;52.090;13.162;2023-04-25T05:23:56;7.88;;;4.47;;
49834;SDS011;35729;52.090;13.162;2023-04-25T05:26:25;8.05;;;4.25;;
49834;SDS011;35729;52.090;13.162;2023-04-25T05:28:56;8.43;;;4.95;;
49834;SDS011;35729;52.090;13.162;2023-04-25T05:31:24;8.48;;;4.35;;
49834;SDS011;35729;52.090;13.162;2023-04-25T05:33:53;6.20;;;4.78;;
49834;SDS011;35729;52.090;13.162;2023-04-25T05:36:24;13.25;;;4.85;;
49834;SDS011;35729;52.090;13.162;2023-04-25T05:38:53;7.18;;;4.07;;
49834;SDS011;35729;52.090;13.162;2023-04-25T05:41:21;12.88;;;5.38;;
49834;SDS011;35729;52.090;13.162;2023-04-25T05:43:50;8.02;;;3.83;;
49834;SDS011;35729;52.090;13.162;2023-04-25T05:46:18;8.85;;;5.38;;
49834;SDS011;35729;52.090;13.162;2023-04-25T05:48:47;9.15;;;4.10;;
49834;SDS011;35729;52.090;13.162;2023-04-25T05:51:15;7.97;;;4.70;;
49834;SDS011;35729;52.090;13.162;2023-04-25T05:53:46;13.82;;;4.65;;
49834;SDS011;35729;52.090;13.162;2023-04-25T05:56:15;11.45;;;4.22;;
49834;SDS011;35729;52.090;13.162;2023-04-25T05:58:43;11.43;;;4.47;;
49834;SDS011;35729;52.090;13.162;2023-04-25T06:01:12;9.57;;;4.53;;
49834;SDS011;35729;52.090;13.162;2023-04-25T06:03:41;11.05;;;5.10;;
49834;SDS011;35729;52.090;13.162;2023-04-25T06:06:10;9.68;;;4.35;;
49834;SDS011;35729;52.090;13.162;2023-04-25T06:08:39;7.78;;;4.20;;
49834;SDS011;35729;52.090;13.162;2023-04-25T06:11:10;18.77;;;5.22;;
49834;SDS011;35729;52.090;13.162;2023-04-25T06:13:39;8.55;;;4.40;;
49834;SDS011;35729;52.090;13.162;2023-04-25T06:16:07;13.70;;;4.97;;
49834;SDS011;35729;52.090;13.162;2023-04-25T06:18:35;12.70;;;5.70;;
49834;SDS011;35729;52.090;13.162;2023-04-25T06:21:04;10.75;;;4.78;;
49834;SDS011;35729;52.090;13.162;2023-04-25T06:23:32;10.98;;;4.90;;
49834;SDS011;35729;52.090;13.162;2023-04-25T06:26:01;9.27;;;5.07;;
49834;SDS011;35729;52.090;13.162;2023-04-25T06:28:32;11.50;;;4.85;;
49834;SDS011;35729;52.090;13.162;2023-04-25T06:31:00;9.50;;;5.25;;
49834;SDS011;35729;52.090;13.162;2023-04-25T06:33:29;10.90;;;5.10;;
49834;SDS011;35729;52.090;13.162;2023-04-25T06:35:57;9.88;;;4.95;;
49834;SDS011;35729;52.090;13.162;2023-04-25T06:38:25;12.77;;;5.25;;
49834;SDS011;35729;52.090;13.162;2023-04-25T06:40:54;11.65;;;5.88;;
49834;SDS011;35729;52.090;13.162;2023-04-25T06:43:22;10.05;;;5.43;;
49834;SDS011;35729;52.090;13.162;2023-04-25T06:45:53;13.88;;;5.78;;
49834;SDS011;35729;52.090;13.162;2023-04-25T06:48:22;11.57;;;6.20;;
49834;SDS011;35729;52.090;13.162;2023-04-25T06:50:50;8.57;;;4.95;;
49834;SDS011;35729;52.090;13.162;2023-04-25T06:53:19;10.15;;;5.30;;
49834;SDS011;35729;52.090;13.162;2023-04-25T06:55:47;10.27;;;5.25;;
49834;SDS011;35729;52.090;13.162;2023-04-25T06:58:15;9.27;;;5.10;;
49834;SDS011;35729;52.090;13.162;2023-04-25T07:00:44;10.95;;;6.20;;
49834;SDS011;35729;52.090;13.162;2023-04-25T07:03:15;9.73;;;5.30;;
49834;SDS011;35729;52.090;13.162;2023-04-25T07:05:43;9.93;;;5.82;;
49834;SDS011;35729;52.090;13.162;2023-04-25T07:08:12;10.63;;;5.13;;
49834;SDS011;35729;52.090;13.162;2023-04-25T07:10:41;7.78;;;5.40;;
49834;SDS011;35729;52.090;13.162;2023-04-25T07:13:11;9.05;;;5.28;;
49834;SDS011;35729;52.090;13.162;2023-04-25T07:15:39;9.32;;;5.18;;
49834;SDS011;35729;52.090;13.162;2023-04-25T07:18:08;7.97;;;5.43;;
49834;SDS011;35729;52.090;13.162;2023-04-25T07:20:39;7.43;;;4.35;;
49834;SDS011;35729;52.090;13.162;2023-04-25T07:23:07;7.57;;;4.57;;
49834;SDS011;35729;52.090;13.162;2023-04-25T07:25:35;10.10;;;4.75;;
49834;SDS011;35729;52.090;13.162;2023-04-25T07:28:04;8.75;;;4.35;;
49834;SDS011;35729;52.090;13.162;2023-04-25T07:30:32;6.85;;;4.65;;
49834;SDS011;35729;52.090;13.162;2023-04-25T07:33:01;8.60;;;4.65;;
49834;SDS011;35729;52.090;13.162;2023-04-25T07:35:30;8.13;;;4.78;;
49834;SDS011;35729;52.090;13.162;2023-04-25T07:38:01;7.32;;;4.50;;
49834;SDS011;35729;52.090;13.162;2023-04-25T07:40:36;6.85;;;4.93;;
49834;SDS011;35729;52.090;13.162;2023-04-25T07:43:04;7.93;;;4.30;;
49834;SDS011;35729;52.090;13.162;2023-04-25T07:45:33;6.60;;;3.83;;
49834;SDS011;35729;52.090;13.162;2023-04-25T07:48:01;9.52;;;4.80;;
49834;SDS011;35729;52.090;13.162;2023-04-25T07:50:30;4.88;;;4.30;;
49834;SDS011;35729;52.090;13.162;2023-04-25T07:53:01;9.15;;;5.35;;
49834;SDS011;35729;52.090;13.162;2023-04-25T07:55:30;8.27;;;4.25;;
49834;SDS011;35729;52.090;13.162;2023-04-25T07:57:58;8.23;;;4.70;;
49834;SDS011;35729;52.090;13.162;2023-04-25T08:00:27;7.57;;;4.88;;
49834;SDS011;35729;52.090;13.162;2023-04-25T08:02:56;8.23;;;5.25;;
49834;SDS011;35729;52.090;13.162;2023-04-25T08:05:24;9.30;;;5.57;;
49834;SDS011;35729;52.090;13.162;2023-04-25T08:07:53;12.57;;;5.30;;
49834;SDS011;35729;52.090;13.162;2023-04-25T08:10:24;9.77;;;5.60;;
49834;SDS011;35729;52.090;13.162;2023-04-25T08:12:53;11.68;;;5.25;;
49834;SDS011;35729;52.090;13.162;2023-04-25T08:15:21;18.85;;;6.30;;
49834;SDS011;35729;52.090;13.162;2023-04-25T08:17:50;13.88;;;6.05;;
49834;SDS011;35729;52.090;13.162;2023-04-25T08:20:18;13.20;;;6.30;;
49834;SDS011;35729;52.090;13.162;2023-04-25T08:22:47;11.77;;;5.05;;
49834;SDS011;35729;52.090;13.162;2023-04-25T08:25:16;16.15;;;6.00;;
49834;SDS011;35729;52.090;13.162;2023-04-25T08:27:47;14.30;;;5.20;;
49834;SDS011;35729;52.090;13.162;2023-04-25T08:30:15;14.95;;;7.18;;
49834;SDS011;35729;52.090;13.162;2023-04-25T08:32:50;12.45;;;6.28;;
49834;SDS011;35729;52.090;13.162;2023-04-25T08:35:19;12.35;;;5.55;;
49834;SDS011;35729;52.090;13.162;2023-04-25T08:37:48;13.32;;;6.38;;
49834;SDS011;35729;52.090;13.162;2023-04-25T08:40:17;12.60;;;5.63;;
49834;SDS011;35729;52.090;13.162;2023-04-25T08:45:23;14.15;;;5.32;;
49834;SDS011;35729;52.090;13.162;2023-04-25T08:47:52;19.58;;;5.75;;
49834;SDS011;35729;52.090;13.162;2023-04-25T08:50:22;13.07;;;5.13;;
49834;SDS011;35729;52.090;13.162;2023-04-25T08:52:52;18.20;;;4.85;;
49834;SDS011;35729;52.090;13.162;2023-04-25T08:55:28;9.65;;;4.53;;
49834;SDS011;35729;52.090;13.162;2023-04-25T08:58:00;7.97;;;4.30;;
49834;SDS011;35729;52.090;13.162;2023-04-25T09:00:29;13.23;;;4.20;;
49834;SDS011;35729;52.090;13.162;2023-04-25T09:02:58;15.05;;;5.07;;
49834;SDS011;35729;52.090;13.162;2023-04-25T09:05:28;12.32;;;4.38;;
49834;SDS011;35729;52.090;13.162;2023-04-25T09:07:56;16.98;;;5.85;;
49834;SDS011;35729;52.090;13.162;2023-04-25T09:10:25;15.55;;;4.32;;
49834;SDS011;35729;52.090;13.162;2023-04-25T09:13:04;10.75;;;3.65;;
49834;SDS011;35729;52.090;13.162;2023-04-25T09:15:35;11.40;;;3.45;;
49834;SDS011;35729;52.090;13.162;2023-04-25T09:18:22;15.38;;;2.88;;
49834;SDS011;35729;52.090;13.162;2023-04-25T09:20:53;15.60;;;3.20;;
49834;SDS011;35729;52.090;13.162;2023-04-25T09:23:22;14.20;;;3.15;;
49834;SDS011;35729;52.090;13.162;2023-04-25T09:25:51;19.13;;;4.05;;
49834;SDS011;35729;52.090;13.162;2023-04-25T09:28:26;14.80;;;3.10;;
49834;SDS011;35729;52.090;13.162;2023-04-25T09:33:27;11.80;;;2.50;;
49834;SDS011;35729;52.090;13.162;2023-04-25T09:36:01;17.30;;;3.78;;
49834;SDS011;35729;52.090;13.162;2023-04-25T09:38:31;14.57;;;3.47;;
49834;SDS011;35729;52.090;13.162;2023-04-25T09:41:07;11.07;;;2.65;;
49834;SDS011;35729;52.090;13.162;2023-04-25T09:43:39;12.15;;;2.47;;
49834;SDS011;35729;52.090;13.162;2023-04-25T09:46:08;9.13;;;2.60;;
49834;SDS011;35729;52.090;13.162;2023-04-25T09:48:37;11.85;;;2.97;;
49834;SDS011;35729;52.090;13.162;2023-04-25T09:51:12;11.50;;;2.67;;
49834;SDS011;35729;52.090;13.162;2023-04-25T09:53:48;13.23;;;3.17;;
49834;SDS011;35729;52.090;13.162;2023-04-25T09:56:17;10.20;;;2.45;;
49834;SDS011;35729;52.090;13.162;2023-04-25T09:58:50;14.02;;;3.30;;
49834;SDS011;35729;52.090;13.162;2023-04-25T10:01:21;14.30;;;2.80;;
49834;SDS011;35729;52.090;13.162;2023-04-25T10:03:51;14.23;;;3.13;;
49834;SDS011;35729;52.090;13.162;2023-04-25T10:06:24;14.10;;;3.15;;
49834;SDS011;35729;52.090;13.162;2023-04-25T10:08:54;12.40;;;2.97;;
49834;SDS011;35729;52.090;13.162;2023-04-25T10:11:23;13.88;;;3.50;;
49834;SDS011;35729;52.090;13.162;2023-04-25T10:13:56;14.40;;;3.30;;
49834;SDS011;35729;52.090;13.162;2023-04-25T10:16:25;15.23;;;3.20;;
49834;SDS011;35729;52.090;13.162;2023-04-25T10:18:54;17.27;;;2.80;;
49834;SDS011;35729;52.090;13.162;2023-04-25T10:21:23;14.45;;;2.80;;
49834;SDS011;35729;52.090;13.162;2023-04-25T10:23:55;13.70;;;3.33;;
49834;SDS011;35729;52.090;13.162;2023-04-25T10:26:24;13.57;;;2.63;;
49834;SDS011;35729;52.090;13.162;2023-04-25T10:28:59;17.65;;;4.10;;
49834;SDS011;35729;52.090;13.162;2023-04-25T10:31:29;10.38;;;2.88;;
49834;SDS011;35729;52.090;13.162;2023-04-25T10:33:59;11.50;;;2.53;;
49834;SDS011;35729;52.090;13.162;2023-04-25T10:36:31;10.65;;;2.72;;
49834;SDS011;35729;52.090;13.162;2023-04-25T10:39:03;13.75;;;3.08;;
49834;SDS011;35729;52.090;13.162;2023-04-25T10:41:45;12.18;;;2.58;;
49834;SDS011;35729;52.090;13.162;2023-04-25T10:44:18;13.23;;;3.90;;
49834;SDS011;35729;52.090;13.162;2023-04-25T10:46:46;11.50;;;3.47;;
49834;SDS011;35729;52.090;13.162;2023-04-25T10:49:28;13.77;;;3.60;;
49834;SDS011;35729;52.090;13.162;2023-04-25T10:54:46;8.93;;;2.72;;
49834;SDS011;35729;52.090;13.162;2023-04-25T11:00:08;9.82;;;2.55;;
49834;SDS011;35729;52.090;13.162;2023-04-25T11:02:47;9.55;;;2.65;;
49834;SDS011;35729;52.090;13.162;2023-04-25T11:05:20;8.43;;;3.03;;
49834;SDS011;35729;52.090;13.162;2023-04-25T11:07:51;12.98;;;2.65;;
49834;SDS011;35729;52.090;13.162;2023-04-25T11:10:24;11.18;;;2.40;;
49834;SDS011;35729;52.090;13.162;2023-04-25T11:12:54;9.73;;;2.92;;
49834;SDS011;35729;52.090;13.162;2023-04-25T11:15:25;9.05;;;2.08;;
49834;SDS011;35729;52.090;13.162;2023-04-25T11:17:55;9.13;;;2.75;;
49834;SDS011;35729;52.090;13.162;2023-04-25T11:20:24;13.63;;;3.38;;
49834;SDS011;35729;52.090;13.162;2023-04-25T11:22:54;15.07;;;3.35;;
49834;SDS011;35729;52.090;13.162;2023-04-25T11:25:25;12.75;;;3.10;;
49834;SDS011;35729;52.090;13.162;2023-04-25T11:27:55;12.07;;;3.10;;
49834;SDS011;35729;52.090;13.162;2023-04-25T11:30:28;18.10;;;2.72;;
49834;SDS011;35729;52.090;13.162;2023-04-25T11:32:56;8.38;;;2.50;;
49834;SDS011;35729;52.090;13.162;2023-04-25T11:35:25;10.82;;;2.75;;
49834;SDS011;35729;52.090;13.162;2023-04-25T11:37:53;7.78;;;2.53;;
49834;SDS011;35729;52.090;13.162;2023-04-25T11:40:22;7.53;;;2.88;;
49834;SDS011;35729;52.090;13.162;2023-04-25T11:42:51;12.35;;;2.67;;
49834;SDS011;35729;52.090;13.162;2023-04-25T11:45:19;11.02;;;3.30;;
49834;SDS011;35729;52.090;13.162;2023-04-25T11:47:50;16.42;;;3.38;;
49834;SDS011;35729;52.090;13.162;2023-04-25T11:50:19;16.70;;;3.17;;
49834;SDS011;35729;52.090;13.162;2023-04-25T11:52:48;10.65;;;2.88;;
49834;SDS011;35729;52.090;13.162;2023-04-25T11:55:18;9.65;;;2.60;;
49834;SDS011;35729;52.090;13.162;2023-04-25T11:57:48;14.50;;;3.95;;
49834;SDS011;35729;52.090;13.162;2023-04-25T12:00:18;7.07;;;1.95;;
49834;SDS011;35729;52.090;13.162;2023-04-25T12:02:53;7.32;;;2.35;;
49834;SDS011;35729;52.090;13.162;2023-04-25T12:05:23;6.10;;;2.38;;
49834;SDS011;35729;52.090;13.162;2023-04-25T12:07:54;8.95;;;2.53;;
49834;SDS011;35729;52.090;13.162;2023-04-25T12:10:23;6.70;;;2.10;;
49834;SDS011;35729;52.090;13.162;2023-04-25T12:12:53;7.75;;;2.05;;
49834;SDS011;35729;52.090;13.162;2023-04-25T12:15:23;5.85;;;2.08;;
49834;SDS011;35729;52.090;13.162;2023-04-25T12:17:55;7.90;;;2.30;;
49834;SDS011;35729;52.090;13.162;2023-04-25T12:20:25;11.40;;;2.67;;
49834;SDS011;35729;52.090;13.162;2023-04-25T12:22:53;10.15;;;2.58;;
49834;SDS011;35729;52.090;13.162;2023-04-25T12:25:34;6.43;;;2.30;;
49834;SDS011;35729;52.090;13.162;2023-04-25T12:28:10;8.73;;;2.15;;
49834;SDS011;35729;52.090;13.162;2023-04-25T12:30:57;5.82;;;1.98;;
49834;SDS011;35729;52.090;13.162;2023-04-25T12:33:29;7.97;;;2.65;;
49834;SDS011;35729;52.090;13.162;2023-04-25T12:35:59;14.30;;;2.92;;
49834;SDS011;35729;52.090;13.162;2023-04-25T12:38:29;7.75;;;2.10;;
49834;SDS011;35729;52.090;13.162;2023-04-25T12:40:59;8.07;;;1.77;;
49834;SDS011;35729;52.090;13.162;2023-04-25T12:43:28;9.43;;;3.05;;
49834;SDS011;35729;52.090;13.162;2023-04-25T12:45:56;12.13;;;2.40;;
49834;SDS011;35729;52.090;13.162;2023-04-25T12:48:25;6.95;;;2.08;;
49834;SDS011;35729;52.090;13.162;2023-04-25T12:50:56;9.27;;;3.05;;
49834;SDS011;35729;52.090;13.162;2023-04-25T12:53:25;11.48;;;2.13;;
49834;SDS011;35729;52.090;13.162;2023-04-25T12:55:53;11.05;;;2.75;;
49834;SDS011;35729;52.090;13.162;2023-04-25T12:58:22;8.77;;;2.08;;
49834;SDS011;35729;52.090;13.162;2023-04-25T13:00:50;7.78;;;2.17;;
49834;SDS011;35729;52.090;13.162;2023-04-25T13:03:19;5.60;;;2.03;;
49834;SDS011;35729;52.090;13.162;2023-04-25T13:05:47;6.35;;;2.13;;
49834;SDS011;35729;52.090;13.162;2023-04-25T13:08:20;7.95;;;2.00;;
49834;SDS011;35729;52.090;13.162;2023-04-25T13:10:48;12.20;;;2.03;;
49834;SDS011;35729;52.090;13.162;2023-04-25T13:13:17;6.53;;;1.95;;
49834;SDS011;35729;52.090;13.162;2023-04-25T13:15:45;9.77;;;2.45;;
49834;SDS011;35729;52.090;13.162;2023-04-25T13:18:14;7.38;;;2.53;;
49834;SDS011;35729;52.090;13.162;2023-04-25T13:20:43;7.95;;;2.10;;
49834;SDS011;35729;52.090;13.162;2023-04-25T13:23:11;9.88;;;2.40;;
49834;SDS011;35729;52.090;13.162;2023-04-25T13:25:42;8.02;;;2.40;;
49834;SDS011;35729;52.090;13.162;2023-04-25T13:28:11;6.60;;;2.08;;
49834;SDS011;35729;52.090;13.162;2023-04-25T13:30:39;8.65;;;2.50;;
49834;SDS011;35729;52.090;13.162;2023-04-25T13:33:08;4.00;;;1.73;;
49834;SDS011;35729;52.090;13.162;2023-04-25T13:35:37;6.60;;;1.83;;
49834;SDS011;35729;52.090;13.162;2023-04-25T13:38:06;5.18;;;2.50;;
49834;SDS011;35729;52.090;13.162;2023-04-25T13:40:35;8.88;;;2.20;;
49834;SDS011;35729;52.090;13.162;2023-04-25T13:43:06;7.65;;;2.13;;
49834;SDS011;35729;52.090;13.162;2023-04-25T13:45:34;5.45;;;2.25;;
49834;SDS011;35729;52.090;13.162;2023-04-25T13:48:24;7.38;;;2.50;;
49834;SDS011;35729;52.090;13.162;2023-04-25T13:50:52;7.18;;;2.33;;
49834;SDS011;35729;52.090;13.162;2023-04-25T13:53:28;8.98;;;2.63;;
49834;SDS011;35729;52.090;13.162;2023-04-25T13:56:03;7.95;;;3.13;;
49834;SDS011;35729;52.090;13.162;2023-04-25T13:58:35;7.20;;;2.15;;
49834;SDS011;35729;52.090;13.162;2023-04-25T14:01:03;7.82;;;2.10;;
49834;SDS011;35729;52.090;13.162;2023-04-25T14:03:32;7.85;;;2.15;;
49834;SDS011;35729;52.090;13.162;2023-04-25T14:06:01;8.45;;;2.58;;
49834;SDS011;35729;52.090;13.162;2023-04-25T14:08:29;8.23;;;2.30;;
49834;SDS011;35729;52.090;13.162;2023-04-25T14:10:58;7.78;;;2.50;;
49834;SDS011;35729;52.090;13.162;2023-04-25T14:13:26;9.50;;;2.20;;
49834;SDS011;35729;52.090;13.162;2023-04-25T14:15:57;8.23;;;2.05;;
49834;SDS011;35729;52.090;13.162;2023-04-25T14:18:25;7.40;;;2.80;;
49834;SDS011;35729;52.090;13.162;2023-04-25T14:20:54;5.50;;;2.22;;
49834;SDS011;35729;52.090;13.162;2023-04-25T14:23:22;8.88;;;2.28;;
49834;SDS011;35729;52.090;13.162;2023-04-25T14:25:51;8.75;;;2.33;;
49834;SDS011;35729;52.090;13.162;2023-04-25T14:28:19;8.48;;;2.55;;
49834;SDS011;35729;52.090;13.162;2023-04-25T14:30:48;6.53;;;1.73;;
49834;SDS011;35729;52.090;13.162;2023-04-25T14:33:19;7.75;;;2.08;;
49834;SDS011;35729;52.090;13.162;2023-04-25T14:35:47;6.90;;;2.47;;
49834;SDS011;35729;52.090;13.162;2023-04-25T14:38:16;5.50;;;1.70;;
49834;SDS011;35729;52.090;13.162;2023-04-25T14:40:48;9.93;;;2.20;;
49834;SDS011;35729;52.090;13.162;2023-04-25T14:43:16;7.07;;;1.73;;
49834;SDS011;35729;52.090;13.162;2023-04-25T14:45:45;5.63;;;1.52;;
49834;SDS011;35729;52.090;13.162;2023-04-25T14:48:13;5.32;;;1.63;;
49834;SDS011;35729;52.090;13.162;2023-04-25T14:50:46;3.63;;;1.35;;
49834;SDS011;35729;52.090;13.162;2023-04-25T14:53:15;4.35;;;1.52;;
49834;SDS011;35729;52.090;13.162;2023-04-25T14:55:43;5.72;;;1.65;;